createdAt,value
2023-01-17T00:01:54.553Z,6.27
2023-01-17T00:04:35.613Z,6.07
2023-01-17T00:07:16.777Z,6.60
2023-01-17T00:09:56.036Z,6.30
2023-01-17T00:12:22.055Z,6.07
2023-01-17T00:14:44.271Z,5.77
2023-01-17T00:17:06.542Z,6.33
2023-01-17T00:19:47.309Z,6.33
2023-01-17T00:22:28.866Z,5.80
2023-01-17T00:25:09.623Z,6.37
2023-01-17T00:27:31.824Z,6.33
2023-01-17T00:29:54.019Z,6.23
2023-01-17T00:32:16.214Z,6.07
2023-01-17T00:34:39.325Z,5.50
2023-01-17T00:37:01.561Z,6.60
2023-01-17T00:39:23.959Z,6.37
2023-01-17T00:41:46.216Z,6.73
2023-01-17T00:44:27.392Z,5.70
2023-01-17T00:47:08.384Z,6.40
2023-01-17T00:49:58.502Z,6.40
2023-01-17T00:52:39.815Z,6.33
2023-01-17T00:55:21.208Z,5.03
2023-01-17T00:58:03.232Z,6.03
2023-01-17T01:00:44.442Z,6.30
2023-01-17T01:03:29.356Z,6.53
2023-01-17T01:06:11.168Z,6.60
2023-01-17T01:08:52.226Z,5.93
2023-01-17T01:11:36.264Z,6.03
2023-01-17T01:14:29.865Z,6.67
2023-01-17T01:20:16.078Z,6.40
2023-01-17T01:22:57.127Z,6.00
2023-01-17T01:25:38.175Z,7.17
2023-01-17T01:28:25.213Z,6.00
2023-01-17T01:31:06.317Z,6.13
2023-01-17T01:33:28.477Z,6.70
2023-01-17T01:35:52.465Z,7.27
2023-01-17T01:38:14.724Z,6.47
2023-01-17T01:40:42.045Z,7.10
2023-01-17T01:43:05.978Z,6.47
2023-01-17T01:45:29.699Z,6.27
2023-01-17T01:47:54.634Z,6.43
2023-01-17T01:50:17.116Z,5.90
2023-01-17T01:52:42.305Z,6.37
2023-01-17T01:55:27.981Z,5.87
2023-01-17T01:57:51.699Z,5.73
2023-01-17T02:00:25.440Z,6.30
2023-01-17T02:02:49.199Z,5.90
2023-01-17T02:05:13.345Z,5.80
2023-01-17T02:07:39.325Z,5.50
2023-01-17T02:10:01.902Z,5.43
2023-01-17T02:12:24.477Z,5.60
2023-01-17T02:14:46.673Z,5.27
2023-01-17T02:17:16.384Z,6.30
2023-01-17T02:20:05.105Z,6.10
2023-01-17T02:22:33.544Z,5.47
2023-01-17T02:25:24.538Z,6.67
2023-01-17T02:27:55.737Z,5.13
2023-01-17T02:30:38.328Z,5.43
2023-01-17T02:33:23.336Z,5.73
2023-01-17T02:35:57.760Z,5.87
2023-01-17T02:38:20.214Z,6.17
2023-01-17T02:40:45.966Z,5.83
2023-01-17T02:43:11.472Z,5.47
2023-01-17T02:45:33.703Z,5.87
2023-01-17T02:47:55.961Z,5.87
2023-01-17T02:50:42.964Z,5.40
2023-01-17T02:53:11.919Z,5.13
2023-01-17T02:55:36.938Z,5.23
2023-01-17T02:58:09.172Z,6.03
2023-01-17T03:00:34.596Z,5.67
2023-01-17T03:03:05.961Z,5.10
2023-01-17T03:05:34.747Z,5.33
2023-01-17T03:07:57.405Z,5.10
2023-01-17T03:10:20.663Z,5.37
2023-01-17T03:12:43.687Z,5.90
2023-01-17T03:15:09.843Z,5.17
2023-01-17T03:17:37.248Z,5.57
2023-01-17T03:19:59.726Z,5.80
2023-01-17T03:22:21.982Z,5.23
2023-01-17T03:24:44.282Z,4.97
2023-01-17T03:27:06.532Z,5.37
2023-01-17T03:29:28.771Z,5.53
2023-01-17T03:31:51.109Z,5.40
2023-01-17T03:34:13.358Z,5.43
2023-01-17T03:36:35.596Z,6.40
2023-01-17T03:38:57.923Z,5.87
2023-01-17T03:41:20.146Z,5.93
2023-01-17T03:43:42.354Z,6.13
2023-01-17T03:46:08.711Z,5.73
2023-01-17T03:48:31.216Z,5.80
2023-01-17T03:50:53.446Z,5.90
2023-01-17T03:53:16.251Z,5.17
2023-01-17T03:55:50.798Z,5.67
2023-01-17T03:58:13.192Z,4.97
2023-01-17T04:00:36.794Z,5.77
2023-01-17T04:02:59.256Z,5.57
2023-01-17T04:05:21.503Z,5.70
2023-01-17T04:07:43.903Z,5.27
2023-01-17T04:10:06.412Z,6.10
2023-01-17T04:12:28.588Z,5.90
2023-01-17T04:14:50.862Z,5.77
2023-01-17T04:17:13.317Z,6.20
2023-01-17T04:19:37.081Z,6.00
2023-01-17T04:21:59.322Z,6.23
2023-01-17T04:24:21.586Z,5.83
2023-01-17T04:26:43.999Z,5.83
2023-01-17T04:29:06.180Z,6.43
2023-01-17T04:31:28.577Z,5.50
2023-01-17T04:33:50.808Z,5.70
2023-01-17T04:36:13.090Z,5.77
2023-01-17T04:38:35.269Z,5.63
2023-01-17T04:40:57.515Z,5.30
2023-01-17T04:43:19.762Z,5.67
2023-01-17T04:45:42.031Z,6.07
2023-01-17T04:48:07.796Z,5.50
2023-01-17T04:50:30.039Z,5.50
2023-01-17T04:52:52.185Z,5.27
2023-01-17T04:55:14.790Z,6.20
2023-01-17T04:57:37.043Z,7.67
2023-01-17T04:59:59.277Z,5.83
2023-01-17T05:02:21.556Z,6.97
2023-01-17T05:04:43.781Z,6.53
2023-01-17T05:07:06.532Z,6.53
2023-01-17T05:09:28.921Z,5.97
2023-01-17T05:11:51.415Z,5.83
2023-01-17T05:14:16.429Z,5.87
2023-01-17T05:16:38.756Z,5.87
2023-01-17T05:19:01.760Z,7.13
2023-01-17T05:21:24.210Z,6.70
2023-01-17T05:23:46.852Z,5.83
2023-01-17T05:26:09.003Z,6.33
2023-01-17T05:28:31.200Z,6.33
2023-01-17T05:30:53.499Z,5.83
2023-01-17T05:33:15.925Z,5.90
2023-01-17T05:35:39.258Z,6.20
2023-01-17T05:38:01.776Z,5.53
2023-01-17T05:40:25.595Z,5.43
2023-01-17T05:42:52.149Z,5.27
2023-01-17T05:45:16.812Z,6.33
2023-01-17T05:47:39.012Z,6.10
2023-01-17T05:50:01.200Z,6.40
2023-01-17T05:52:23.410Z,6.67
2023-01-17T05:54:45.619Z,6.57
2023-01-17T05:57:07.825Z,7.17
2023-01-17T05:59:37.066Z,7.03
2023-01-17T06:01:59.824Z,6.50
2023-01-17T06:04:22.262Z,6.67
2023-01-17T06:06:46.376Z,7.77
2023-01-17T06:09:08.645Z,6.33
2023-01-17T06:11:31.025Z,7.23
2023-01-17T06:13:53.288Z,6.10
2023-01-17T06:16:15.650Z,7.50
2023-01-17T06:18:38.273Z,7.70
2023-01-17T06:21:00.624Z,8.23
2023-01-17T06:23:24.110Z,9.20
2023-01-17T06:25:48.251Z,8.20
2023-01-17T06:28:11.105Z,7.23
2023-01-17T06:30:33.303Z,7.37
2023-01-17T06:32:55.955Z,7.50
2023-01-17T06:35:18.180Z,7.87
2023-01-17T06:37:41.364Z,7.73
2023-01-17T06:40:03.724Z,9.73
2023-01-17T06:42:26.038Z,8.27
2023-01-17T06:44:48.263Z,9.00
2023-01-17T06:47:10.503Z,8.07
2023-01-17T06:49:32.831Z,8.43
2023-01-17T06:51:55.053Z,8.53
2023-01-17T06:54:18.840Z,7.70
2023-01-17T06:56:41.080Z,8.60
2023-01-17T06:59:03.760Z,7.60
2023-01-17T07:01:26.704Z,7.57
2023-01-17T07:03:48.939Z,7.40
2023-01-17T07:06:11.209Z,8.03
2023-01-17T07:08:33.477Z,7.87
2023-01-17T07:11:00.339Z,8.70
2023-01-17T07:13:22.661Z,8.67
2023-01-17T07:15:44.929Z,7.90
2023-01-17T07:18:07.852Z,8.73
2023-01-17T07:20:30.252Z,8.93
2023-01-17T07:22:52.475Z,8.80
2023-01-17T07:25:14.763Z,7.37
2023-01-17T07:27:36.984Z,8.60
2023-01-17T07:30:00.292Z,7.40
2023-01-17T07:32:22.597Z,8.90
2023-01-17T07:34:44.832Z,7.50
2023-01-17T07:37:07.059Z,7.73
2023-01-17T07:39:29.270Z,8.13
2023-01-17T07:41:51.518Z,8.00
2023-01-17T07:44:15.034Z,9.10
2023-01-17T07:46:37.480Z,8.60
2023-01-17T07:48:59.739Z,8.57
2023-01-17T07:51:22.042Z,8.50
2023-01-17T07:53:44.277Z,9.30
2023-01-17T07:56:07.631Z,8.93
2023-01-17T07:58:29.935Z,9.40
2023-01-17T08:00:52.515Z,9.37
2023-01-17T08:03:16.291Z,8.93
2023-01-17T08:05:38.661Z,9.67
2023-01-17T08:08:00.889Z,9.43
2023-01-17T08:10:23.180Z,9.07
2023-01-17T08:12:49.018Z,10.50
2023-01-17T08:15:11.865Z,9.43
2023-01-17T08:17:35.084Z,10.00
2023-01-17T08:19:57.323Z,9.37
2023-01-17T08:22:20.386Z,9.83
2023-01-17T08:24:43.091Z,10.07
2023-01-17T08:27:05.374Z,9.50
2023-01-17T08:29:27.597Z,9.50
2023-01-17T08:31:50.360Z,9.17
2023-01-17T08:34:14.127Z,10.43
2023-01-17T08:36:36.514Z,10.23
2023-01-17T08:38:59.760Z,17.77
2023-01-17T08:41:23.080Z,10.13
2023-01-17T08:43:45.349Z,14.00
2023-01-17T08:46:07.673Z,13.73
2023-01-17T08:48:29.973Z,13.27
2023-01-17T08:50:52.268Z,11.10
2023-01-17T08:53:14.686Z,12.43
2023-01-17T08:55:40.829Z,14.03
2023-01-17T08:58:03.025Z,13.80
2023-01-17T09:00:25.385Z,14.67
2023-01-17T09:02:47.606Z,17.93
2023-01-17T09:05:10.080Z,13.37
2023-01-17T09:07:32.352Z,14.80
2023-01-17T09:09:54.891Z,19.23
2023-01-17T09:12:17.282Z,12.27
2023-01-17T09:14:39.592Z,13.47
2023-01-17T09:17:02.420Z,12.03
2023-01-17T09:19:24.625Z,12.97
2023-01-17T09:21:46.968Z,11.93
2023-01-17T09:24:09.275Z,11.87
2023-01-17T09:26:31.950Z,14.10
2023-01-17T09:28:54.761Z,9.10
2023-01-17T09:31:17.818Z,7.90
2023-01-17T09:33:43.077Z,7.87
2023-01-17T09:36:05.742Z,5.63
2023-01-17T09:38:28.401Z,5.33
2023-01-17T09:40:51.416Z,6.40
2023-01-17T09:43:36.614Z,5.40
2023-01-17T09:45:59.000Z,4.90
2023-01-17T09:48:27.082Z,5.03
2023-01-17T09:50:53.949Z,5.77
2023-01-17T09:53:19.077Z,5.17
2023-01-17T09:55:44.531Z,9.50
2023-01-17T09:58:09.611Z,4.50
2023-01-17T10:00:32.172Z,8.97
2023-01-17T10:03:09.907Z,5.00
2023-01-17T10:05:52.593Z,4.33
2023-01-17T10:08:33.765Z,4.93
2023-01-17T10:11:14.484Z,4.20
2023-01-17T10:13:36.719Z,4.17
2023-01-17T10:16:06.578Z,3.77
2023-01-17T10:18:40.565Z,4.67
2023-01-17T10:21:10.868Z,4.50
2023-01-17T10:23:39.343Z,4.77
2023-01-17T10:26:03.303Z,5.10
2023-01-17T10:28:33.803Z,4.90
2023-01-17T10:31:00.795Z,5.07
2023-01-17T10:33:27.176Z,4.50
2023-01-17T10:35:53.381Z,4.90
2023-01-17T10:38:16.847Z,4.97
2023-01-17T10:40:45.028Z,5.07
2023-01-17T10:43:16.514Z,5.20
2023-01-17T10:45:43.719Z,4.40
2023-01-17T10:48:28.749Z,5.07
2023-01-17T10:51:00.425Z,5.30
2023-01-17T10:53:39.252Z,4.63
2023-01-17T10:56:02.889Z,5.00
2023-01-17T10:58:35.783Z,4.70
2023-01-17T11:01:04.922Z,5.30
2023-01-17T11:03:39.527Z,5.17
2023-01-17T11:06:19.294Z,4.53
2023-01-17T11:09:17.133Z,4.60
2023-01-17T11:11:48.198Z,4.83
2023-01-17T11:14:34.472Z,4.30
2023-01-17T11:17:06.523Z,4.67
2023-01-17T11:19:39.438Z,3.53
2023-01-17T11:22:04.837Z,4.40
2023-01-17T11:24:31.161Z,4.07
2023-01-17T11:26:53.587Z,3.77
2023-01-17T11:29:31.683Z,4.17
2023-01-17T11:32:02.436Z,3.60
2023-01-17T11:34:43.510Z,3.50
2023-01-17T11:37:13.402Z,3.77
2023-01-17T11:39:38.734Z,4.53
2023-01-17T11:42:01.662Z,3.90
2023-01-17T11:44:29.049Z,4.60
2023-01-17T11:47:19.179Z,4.10
2023-01-17T11:49:52.603Z,7.53
2023-01-17T11:52:23.480Z,4.63
2023-01-17T11:54:50.395Z,4.10
2023-01-17T11:57:35.771Z,3.63
2023-01-17T12:00:20.738Z,3.77
2023-01-17T12:03:02.088Z,3.27
2023-01-17T12:05:33.164Z,3.83
2023-01-17T12:08:10.559Z,2.93
2023-01-17T12:10:38.223Z,3.47
2023-01-17T12:13:26.316Z,3.47
2023-01-17T12:16:30.167Z,3.37
2023-01-17T12:19:07.635Z,6.20
2023-01-17T12:21:55.785Z,3.90
2023-01-17T12:24:37.038Z,2.90
2023-01-17T12:27:07.800Z,2.80
2023-01-17T12:29:51.650Z,2.43
2023-01-17T12:32:32.824Z,2.70
2023-01-17T12:35:01.078Z,3.10
2023-01-17T12:37:37.141Z,2.93
2023-01-17T12:40:04.515Z,3.43
2023-01-17T12:42:33.820Z,2.87
2023-01-17T12:45:07.103Z,3.97
2023-01-17T12:47:30.258Z,3.50
2023-01-17T12:50:04.671Z,3.17
2023-01-17T12:52:46.357Z,3.10
2023-01-17T12:55:15.536Z,3.70
2023-01-17T12:57:43.894Z,3.20
2023-01-17T13:00:23.251Z,3.40
2023-01-17T13:02:58.006Z,2.90
2023-01-17T13:05:46.138Z,2.80
2023-01-17T13:08:14.602Z,3.10
2023-01-17T13:11:00.503Z,3.30
2023-01-17T13:13:25.857Z,3.20
2023-01-17T13:15:50.214Z,3.50
2023-01-17T13:18:17.462Z,3.20
2023-01-17T13:20:59.161Z,3.57
2023-01-17T13:23:36.738Z,3.70
2023-01-17T13:26:00.141Z,3.63
2023-01-17T13:28:30.320Z,3.30
2023-01-17T13:31:05.928Z,3.70
2023-01-17T13:34:02.488Z,3.47
2023-01-17T13:36:34.868Z,4.00
2023-01-17T13:39:16.246Z,3.13
2023-01-17T13:42:07.474Z,4.03
2023-01-17T13:44:32.174Z,34.60
2023-01-17T13:47:06.866Z,3.03
2023-01-17T13:49:34.254Z,3.40
2023-01-17T13:52:12.361Z,3.97
2023-01-17T13:54:50.777Z,4.30
2023-01-17T13:57:30.453Z,3.97
2023-01-17T13:59:53.553Z,4.10
2023-01-17T14:02:38.833Z,4.17
2023-01-17T14:05:19.807Z,4.10
2023-01-17T14:08:02.823Z,4.43
2023-01-17T14:10:51.482Z,5.03
2023-01-17T14:13:32.463Z,4.50
2023-01-17T14:15:58.705Z,4.77
2023-01-17T14:18:43.333Z,4.10
2023-01-17T14:21:17.079Z,4.00
2023-01-17T14:23:49.690Z,3.83
2023-01-17T14:26:14.631Z,3.77
2023-01-17T14:28:49.118Z,4.20
2023-01-17T14:31:14.998Z,4.30
2023-01-17T14:33:41.503Z,3.80
2023-01-17T14:36:09.748Z,4.10
2023-01-17T14:38:48.684Z,3.60
2023-01-17T14:41:24.859Z,3.73
2023-01-17T14:43:48.693Z,3.57
2023-01-17T14:46:25.903Z,3.70
2023-01-17T14:49:03.922Z,3.40
2023-01-17T14:51:26.547Z,3.57
2023-01-17T14:54:08.322Z,3.03
2023-01-17T14:56:34.889Z,3.77
2023-01-17T14:59:24.390Z,3.10
2023-01-17T15:02:06.837Z,3.53
2023-01-17T15:04:36.687Z,3.30
2023-01-17T15:07:01.128Z,3.40
2023-01-17T15:09:25.550Z,4.07
2023-01-17T15:11:49.261Z,3.43
2023-01-17T15:14:14.978Z,4.27
2023-01-17T15:16:38.310Z,3.50
2023-01-17T15:19:01.986Z,3.90
2023-01-17T15:21:26.755Z,6.27
2023-01-17T15:23:51.276Z,6.10
2023-01-17T15:26:15.656Z,6.73
2023-01-17T15:28:37.961Z,4.33
2023-01-17T15:31:10.939Z,3.87
2023-01-17T15:33:34.517Z,4.73
2023-01-17T15:36:09.059Z,5.93
2023-01-17T15:38:38.772Z,7.70
2023-01-17T15:41:12.868Z,11.03
2023-01-17T15:43:35.941Z,11.97
2023-01-17T15:45:58.515Z,8.17
2023-01-17T15:48:39.446Z,4.77
2023-01-17T15:51:01.703Z,4.10
2023-01-17T15:53:32.165Z,4.33
2023-01-17T15:55:54.441Z,4.40
2023-01-17T15:58:24.070Z,4.77
2023-01-17T16:00:46.955Z,4.67
2023-01-17T16:03:32.181Z,4.40
2023-01-17T16:05:56.797Z,4.10
2023-01-17T16:08:38.685Z,4.40
2023-01-17T16:11:02.576Z,4.30
2023-01-17T16:13:24.901Z,5.57
2023-01-17T16:15:47.165Z,4.93
2023-01-17T16:18:17.293Z,4.93
2023-01-17T16:20:41.506Z,4.60
2023-01-17T16:23:03.906Z,4.67
2023-01-17T16:25:32.349Z,4.43
2023-01-17T16:27:55.325Z,4.80
2023-01-17T16:30:18.892Z,5.10
2023-01-17T16:32:41.291Z,4.53
2023-01-17T16:35:04.668Z,4.43
2023-01-17T16:37:28.574Z,5.03
2023-01-17T16:39:50.942Z,4.20
2023-01-17T16:42:13.149Z,5.03
2023-01-17T16:44:37.691Z,5.47
2023-01-17T16:47:03.961Z,5.87
2023-01-17T16:49:26.196Z,5.00
2023-01-17T16:51:51.090Z,4.60
2023-01-17T16:54:13.260Z,5.03
2023-01-17T16:56:35.530Z,4.87
2023-01-17T16:58:57.825Z,4.97
2023-01-17T17:01:22.469Z,5.47
2023-01-17T17:03:44.893Z,5.60
2023-01-17T17:06:07.283Z,5.47
2023-01-17T17:08:30.428Z,4.17
2023-01-17T17:10:52.945Z,4.07
2023-01-17T17:13:18.201Z,4.30
2023-01-17T17:15:44.855Z,4.03
2023-01-17T17:18:07.173Z,4.50
2023-01-17T17:20:29.454Z,4.70
2023-01-17T17:22:52.139Z,4.60
2023-01-17T17:25:15.899Z,5.20
2023-01-17T17:27:38.322Z,5.40
2023-01-17T17:30:00.696Z,5.10
2023-01-17T17:32:23.312Z,5.63
2023-01-17T17:34:45.820Z,5.90
2023-01-17T17:37:08.075Z,5.93
2023-01-17T17:39:30.305Z,12.20
2023-01-17T17:41:52.600Z,10.87
2023-01-17T17:44:15.081Z,7.40
2023-01-17T17:46:37.485Z,6.47
2023-01-17T17:49:00.444Z,6.07
2023-01-17T17:51:27.279Z,5.80
2023-01-17T17:53:53.215Z,5.70
2023-01-17T17:56:15.811Z,6.03
2023-01-17T17:58:39.527Z,6.57
2023-01-17T18:01:05.907Z,6.30
2023-01-17T18:03:30.064Z,7.00
2023-01-17T18:05:52.618Z,7.93
2023-01-17T18:08:15.101Z,15.00
2023-01-17T18:10:38.141Z,15.07
2023-01-17T18:13:00.720Z,9.80
2023-01-17T18:15:24.484Z,9.50
2023-01-17T18:17:48.656Z,7.50
2023-01-17T18:20:23.998Z,7.70
2023-01-17T18:22:46.711Z,8.20
2023-01-17T18:25:11.628Z,6.97
2023-01-17T18:27:34.189Z,6.67
2023-01-17T18:29:56.740Z,6.20
2023-01-17T18:32:19.164Z,6.87
2023-01-17T18:34:42.483Z,6.37
2023-01-17T18:37:04.946Z,6.10
2023-01-17T18:39:29.635Z,5.90
2023-01-17T18:41:52.396Z,6.17
2023-01-17T18:44:15.365Z,6.53
2023-01-17T18:46:38.594Z,6.40
2023-01-17T18:49:05.054Z,5.73
2023-01-17T18:51:30.860Z,5.97
2023-01-17T18:53:57.716Z,5.73
2023-01-17T18:56:21.358Z,6.23
2023-01-17T18:58:45.037Z,5.53
2023-01-17T19:01:15.120Z,5.87
2023-01-17T19:03:38.050Z,5.23
2023-01-17T19:06:04.347Z,5.13
2023-01-17T19:08:27.070Z,5.30
2023-01-17T19:10:49.412Z,5.60
2023-01-17T19:13:12.030Z,5.30
2023-01-17T19:15:36.294Z,5.87
2023-01-17T19:17:58.872Z,5.30
2023-01-17T19:20:21.361Z,5.47
2023-01-17T19:22:47.384Z,5.77
2023-01-17T19:25:10.182Z,5.90
2023-01-17T19:27:32.824Z,5.30
2023-01-17T19:29:55.352Z,6.30
2023-01-17T19:32:18.610Z,7.17
2023-01-17T19:34:41.253Z,6.47
2023-01-17T19:37:06.154Z,6.77
2023-01-17T19:39:32.356Z,6.47
2023-01-17T19:41:54.907Z,5.80
2023-01-17T19:44:17.462Z,6.30
2023-01-17T19:46:40.628Z,5.73
2023-01-17T19:49:03.891Z,6.10
2023-01-17T19:51:30.073Z,7.00
2023-01-17T19:53:53.898Z,6.20
2023-01-17T19:56:19.316Z,6.40
2023-01-17T19:58:42.571Z,24.27
2023-01-17T20:01:30.913Z,17.23
2023-01-17T20:03:55.468Z,10.53
2023-01-17T20:06:20.684Z,6.33
2023-01-17T20:08:43.643Z,7.63
2023-01-17T20:11:07.933Z,7.23
2023-01-17T20:13:32.069Z,8.47
2023-01-17T20:15:54.405Z,7.53
2023-01-17T20:18:16.976Z,6.50
2023-01-17T20:20:56.275Z,6.17
2023-01-17T20:23:19.557Z,5.80
2023-01-17T20:25:43.297Z,7.07
2023-01-17T20:28:07.413Z,7.80
2023-01-17T20:30:30.059Z,7.40
2023-01-17T20:32:53.730Z,6.40
2023-01-17T20:35:16.490Z,6.40
2023-01-17T20:37:39.720Z,6.23
2023-01-17T20:40:02.208Z,6.50
2023-01-17T20:42:24.703Z,6.20
2023-01-17T20:44:47.847Z,6.07
2023-01-17T20:47:10.170Z,6.23
2023-01-17T20:49:32.838Z,6.60
2023-01-17T20:51:58.502Z,5.83
2023-01-17T20:54:21.277Z,7.37
2023-01-17T20:56:44.326Z,5.50
2023-01-17T20:59:09.581Z,5.80
2023-01-17T21:01:36.043Z,5.57
2023-01-17T21:03:58.948Z,6.20
2023-01-17T21:06:22.386Z,5.90
2023-01-17T21:08:46.995Z,5.03
2023-01-17T21:11:10.465Z,5.57
2023-01-17T21:13:32.993Z,5.47
2023-01-17T21:15:55.636Z,5.73
2023-01-17T21:18:19.604Z,5.97
2023-01-17T21:20:42.337Z,5.57
2023-01-17T21:23:13.322Z,5.93
2023-01-17T21:25:39.334Z,6.30
2023-01-17T21:28:08.004Z,5.37
2023-01-17T21:30:30.697Z,5.43
2023-01-17T21:32:53.279Z,6.00
2023-01-17T21:35:15.942Z,6.07
2023-01-17T21:37:38.404Z,6.27
2023-01-17T21:40:01.573Z,5.60
2023-01-17T21:42:24.991Z,6.23
2023-01-17T21:44:47.314Z,5.90
2023-01-17T21:47:10.788Z,5.93
2023-01-17T21:49:33.206Z,5.53
2023-01-17T21:51:55.516Z,5.00
2023-01-17T21:54:18.353Z,5.97
2023-01-17T21:57:01.037Z,5.83
2023-01-17T21:59:24.678Z,5.93
2023-01-17T22:01:47.608Z,6.20
2023-01-17T22:04:11.863Z,6.37
2023-01-17T22:06:40.143Z,5.97
2023-01-17T22:09:02.405Z,5.80
2023-01-17T22:11:25.970Z,5.27
2023-01-17T22:13:51.064Z,5.60
2023-01-17T22:16:16.403Z,5.60
2023-01-17T22:18:41.149Z,6.00
2023-01-17T22:21:08.127Z,6.10
2023-01-17T22:23:30.951Z,5.37
2023-01-17T22:25:53.293Z,5.73
2023-01-17T22:28:15.558Z,6.57
2023-01-17T22:30:38.993Z,6.13
2023-01-17T22:33:01.819Z,6.17
2023-01-17T22:35:25.521Z,6.47
2023-01-17T22:37:48.994Z,7.27
2023-01-17T22:40:17.281Z,7.93
2023-01-17T22:42:39.943Z,6.10
2023-01-17T22:45:02.403Z,6.27
2023-01-17T22:47:25.919Z,6.60
2023-01-17T22:49:48.206Z,6.50
2023-01-17T22:52:13.313Z,8.17
2023-01-17T22:54:35.825Z,7.50
2023-01-17T22:56:59.367Z,5.90
2023-01-17T22:59:21.953Z,6.20
2023-01-17T23:01:44.224Z,6.20
2023-01-17T23:04:06.622Z,6.07
2023-01-17T23:06:30.549Z,5.47
2023-01-17T23:08:54.322Z,6.33
2023-01-17T23:11:42.323Z,6.40
2023-01-17T23:14:05.069Z,5.63
2023-01-17T23:16:46.761Z,5.43
2023-01-17T23:19:24.971Z,6.03
2023-01-17T23:22:06.593Z,6.03
2023-01-17T23:24:38.441Z,6.13
2023-01-17T23:27:20.638Z,6.00
2023-01-17T23:29:43.192Z,6.27
2023-01-17T23:32:14.948Z,6.50
2023-01-17T23:34:37.503Z,6.43
2023-01-17T23:36:59.795Z,6.20
2023-01-17T23:39:22.453Z,6.20
2023-01-17T23:42:03.644Z,6.53
2023-01-17T23:44:31.540Z,7.67
2023-01-17T23:46:53.921Z,6.30
2023-01-17T23:49:16.305Z,6.40
2023-01-17T23:51:38.937Z,6.47
2023-01-17T23:54:05.549Z,6.30
2023-01-17T23:56:31.561Z,6.20
2023-01-17T23:58:58.425Z,6.17
